Time;durP1;ratioP1;P1;durP2;ratioP2;P2;SDS_P1;SDS_P2;PMS_P1;PMS_P2;Temp;Humidity;BMP_temperature;BMP_pressure;BME280_temperature;BME280_humidity;BME280_pressure;Samples;Min_cycle;Max_cycle;Signal;HPM_P1;HPM_P2
2022/09/11 00:02:31;;;;;;;11.60;5.30;;;;;;;14.45;83.54;99885.28;2027561;87;34105;-62
2022/09/11 00:05:39;;;;;;;6.95;5.12;;;;;;;14.45;83.54;99883.94;2027541;87;29748;-61
2022/09/11 00:08:41;;;;;;;7.72;5.60;;;;;;;14.44;83.67;99881.72;2027971;87;27704;-61
2022/09/11 00:11:43;;;;;;;8.45;5.75;;;;;;;14.45;83.78;99881.24;2027487;87;28767;-61
2022/09/11 00:14:45;;;;;;;13.22;5.67;;;;;;;14.47;83.85;99879.77;2027385;87;31153;-61
2022/09/11 00:17:46;;;;;;;12.73;6.05;;;;;;;14.49;83.92;99884.56;2027320;87;34294;-62
2022/09/11 00:20:53;;;;;;;6.00;5.42;;;;;;;14.50;84.31;99883.09;2027381;87;29453;-61
2022/09/11 00:23:55;;;;;;;8.45;5.70;;;;;;;14.50;84.31;99883.09;2027755;87;27740;-61
2022/09/11 00:26:57;;;;;;;10.00;6.47;;;;;;;14.52;84.14;99883.84;2027691;87;29515;-61
2022/09/11 00:30:00;;;;;;;6.75;5.47;;;;;;;14.51;84.08;99875.38;1991064;89;32311;-61
2022/09/11 00:33:02;;;;;;;7.22;5.53;;;;;;;14.51;84.07;99875.38;1991463;89;32895;-65
2022/09/11 00:36:08;;;;;;;11.28;6.12;;;;;;;14.53;84.11;99881.53;2016275;88;30016;-65
2022/09/11 00:39:11;;;;;;;6.62;6.00;;;;;;;14.53;84.07;99882.88;2016089;88;27646;-64
2022/09/11 00:42:12;;;;;;;7.10;5.67;;;;;;;14.54;84.14;99881.06;1991377;89;28775;-63
2022/09/11 00:45:22;;;;;;;7.97;5.87;;;;;;;14.54;84.12;99881.91;2016375;88;31466;-64
2022/09/11 00:48:28;;;;;;;6.28;5.65;;;;;;;14.53;84.18;99868.55;1991058;88;34408;-64
2022/09/11 00:51:33;;;;;;;11.18;7.28;;;;;;;14.53;84.18;99868.55;1991477;89;30564;-64
2022/09/11 00:54:42;;;;;;;12.65;6.72;;;;;;;14.53;84.07;99868.05;1992062;89;27729;-63
2022/09/11 00:58:01;;;;;;;8.08;5.72;;;;;;;14.52;84.21;99860.94;1999583;89;29429;-64
2022/09/11 01:01:03;;;;;;;6.25;5.40;;;;;;;14.51;84.18;99861.06;1966483;90;31128;-64
2022/09/11 01:04:05;;;;;;;5.70;4.80;;;;;;;14.48;84.11;99855.39;1999558;89;34184;-63
2022/09/11 01:07:07;;;;;;;10.43;6.05;;;;;;;14.48;84.43;99863.97;1966189;90;30336;-63
2022/09/11 01:10:09;;;;;;;5.35;4.85;;;;;;;14.47;84.22;99864.95;2030290;87;27628;-63
2022/09/11 01:13:26;;;;;;;6.90;5.28;;;;;;;14.46;84.25;99872.19;2029911;87;29957;-63
2022/09/11 01:16:36;;;;;;;9.68;5.28;;;;;;;14.44;84.25;99874.97;1994042;89;32229;-62
2022/09/11 01:20:04;;;;;;;6.05;5.55;;;;;;;14.43;84.52;99867.02;1989549;89;33320;-62
2022/09/11 01:23:29;;;;;;;6.80;4.95;;;;;;;14.43;84.52;99867.02;1963300;90;31738;-62
2022/09/11 01:26:51;;;;;;;10.05;5.40;;;;;;;14.42;84.58;99872.03;1977922;90;27766;-63
2022/09/11 01:30:03;;;;;;;9.00;5.50;;;;;;;14.41;84.32;99866.27;1974441;90;29872;-63
2022/09/11 01:33:22;;;;;;;5.97;5.15;;;;;;;14.38;84.41;99866.01;1976861;90;30714;-62
2022/09/11 01:36:34;;;;;;;5.78;5.10;;;;;;;14.39;84.55;99866.39;1964231;90;33181;-62
2022/09/11 01:39:42;;;;;;;6.62;5.12;;;;;;;14.38;84.47;99864.66;1977986;90;29659;-62
2022/09/11 01:42:45;;;;;;;6.03;4.37;;;;;;;14.37;84.43;99863.41;1964627;90;27790;-61
2022/09/11 01:45:49;;;;;;;7.03;5.05;;;;;;;14.37;84.54;99856.20;1977590;90;29751;-62
2022/09/11 01:49:02;;;;;;;6.22;4.35;;;;;;;14.37;84.58;99850.81;1964130;90;31092;-61
2022/09/11 01:52:18;;;;;;;11.48;4.87;;;;;;;14.17;84.38;99825.30;1930611;90;33485;-61
2022/09/11 01:55:33;;;;;;;5.03;4.58;;;;;;;14.35;84.44;99862.19;2034672;87;30281;-61
2022/09/11 01:58:36;;;;;;;5.83;4.20;;;;;;;14.34;84.48;99859.11;2030199;87;28259;-62
2022/09/11 02:01:41;;;;;;;6.78;4.33;;;;;;;14.34;84.68;99849.68;2030035;87;29872;-62
2022/09/11 02:05:00;;;;;;;5.85;5.05;;;;;;;14.34;84.68;99849.68;2029713;87;31753;-62
2022/09/11 02:08:07;;;;;;;6.55;4.22;;;;;;;14.35;84.65;99851.88;2029013;87;34022;-62
2022/09/11 02:11:14;;;;;;;8.10;4.50;;;;;;;14.26;84.75;99839.93;2029655;87;29707;-61
2022/09/11 02:14:29;;;;;;;4.62;4.17;;;;;;;14.32;84.58;99844.89;2029620;87;28009;-61
2022/09/11 02:17:55;;;;;;;7.87;4.67;;;;;;;14.31;84.59;99843.66;2030122;87;29499;-61
2022/09/11 02:20:57;;;;;;;4.95;4.45;;;;;;;14.28;84.57;99841.56;1990655;89;31953;-62
2022/09/11 02:24:00;;;;;;;7.92;4.60;;;;;;;14.11;84.35;99828.45;2029842;87;34097;-63
2022/09/11 02:27:08;;;;;;;8.03;4.15;;;;;;;14.11;84.35;99828.45;1990464;89;29735;-63
2022/09/11 02:30:13;;;;;;;7.37;4.60;;;;;;;14.22;84.64;99850.58;1990933;89;27695;-63
2022/09/11 02:33:35;;;;;;;8.30;5.07;;;;;;;14.20;84.53;99852.52;1991009;89;28734;-62
2022/09/11 02:37:07;;;;;;;7.65;4.70;;;;;;;14.17;84.55;99846.84;2030031;87;31072;-61
2022/09/11 02:40:33;;;;;;;9.73;4.80;;;;;;;14.13;84.51;99844.86;1928038;92;33408;-60
2022/09/11 02:44:07;;;;;;;5.92;4.75;;;;;;;14.10;84.50;99849.13;1923978;92;30018;-61
2022/09/11 02:47:20;;;;;;;6.22;4.42;;;;;;;14.05;84.46;99849.96;1891192;94;27698;-62
2022/09/11 02:50:42;;;;;;;6.05;5.00;;;;;;;13.99;84.38;99836.92;1815933;98;29104;-63
2022/09/11 02:54:24;;;;;;;6.22;4.33;;;;;;;13.95;84.41;99839.45;1815599;98;32553;-62
2022/09/11 02:57:43;;;;;;;9.38;5.28;;;;;;;13.90;84.48;99841.63;1815868;97;33178;-62
2022/09/11 03:00:46;;;;;;;5.17;4.67;;;;;;;13.83;84.52;99844.74;1815577;98;29767;-62
2022/09/11 03:03:48;;;;;;;5.92;5.17;;;;;;;13.79;84.58;99843.23;1815983;98;27832;-62
2022/09/11 03:06:50;;;;;;;6.05;4.83;;;;;;;13.75;84.50;99840.87;1816350;98;29063;-64
2022/09/11 03:09:52;;;;;;;9.85;4.78;;;;;;;13.70;84.54;99838.52;1815674;98;33148;-64
2022/09/11 03:12:54;;;;;;;6.40;5.75;;;;;;;13.67;84.62;99844.10;1815805;98;48352;-64
2022/09/11 03:15:56;;;;;;;5.62;5.03;;;;;;;13.63;84.61;99842.59;1901746;90;29704;-63
2022/09/11 03:18:57;;;;;;;6.20;5.60;;;;;;;13.59;84.59;99845.11;1958046;90;28377;-63
2022/09/11 03:21:58;;;;;;;15.90;5.62;;;;;;;13.55;84.59;99849.85;1958096;90;29820;-63
2022/09/11 03:25:00;;;;;;;10.93;6.60;;;;;;;13.52;84.65;99846.90;1957945;90;31171;-62
2022/09/11 03:28:03;;;;;;;7.30;6.60;;;;;;;13.51;84.78;99860.44;2003611;87;33480;-62
2022/09/11 03:31:06;;;;;;;8.20;6.72;;;;;;;13.49;84.91;99865.94;2029826;87;29707;-62
2022/09/11 03:34:09;;;;;;;10.28;7.05;;;;;;;13.50;85.12;99871.70;2030401;87;27686;-62
2022/09/11 03:37:10;;;;;;;9.98;7.53;;;;;;;13.51;85.27;99878.81;2029589;87;29968;-64
2022/09/11 03:40:11;;;;;;;9.60;7.50;;;;;;;13.53;85.38;99873.31;2029970;87;31388;-64
2022/09/11 03:43:15;;;;;;;8.90;8.00;;;;;;;13.55;85.46;99873.23;2029651;87;33024;-64
2022/09/11 03:46:16;;;;;;;12.10;7.62;;;;;;;13.56;85.59;99883.88;2029779;87;30913;-64
2022/09/11 03:49:19;;;;;;;10.10;8.05;;;;;;;13.59;85.71;99876.06;2030184;87;27696;-61
2022/09/11 03:52:21;;;;;;;12.58;7.90;;;;;;;13.63;85.84;99887.88;2030217;87;29266;-61
2022/09/11 03:55:23;;;;;;;10.28;8.28;;;;;;;13.63;85.84;99887.88;2029637;87;32241;-63
2022/09/11 03:58:25;;;;;;;9.93;7.95;;;;;;;13.66;85.84;99884.95;2029809;87;33082;-63
2022/09/11 04:01:27;;;;;;;8.85;7.95;;;;;;;13.68;85.85;99888.90;2029674;87;29787;-62
2022/09/11 04:04:29;;;;;;;9.30;7.70;;;;;;;13.70;85.87;99886.97;2030198;87;27746;-62
2022/09/11 04:07:30;;;;;;;10.38;7.72;;;;;;;13.70;85.82;99881.58;2029917;87;29378;-62
2022/09/11 04:10:33;;;;;;;11.55;7.67;;;;;;;13.71;85.82;99888.69;2030421;87;31074;-62
2022/09/11 04:13:37;;;;;;;10.55;7.55;;;;;;;13.72;85.94;99889.53;2026130;87;35089;-63
2022/09/11 04:16:39;;;;;;;12.73;8.78;;;;;;;13.73;85.99;99881.84;2030044;87;29643;-64
2022/09/11 04:19:40;;;;;;;12.30;8.75;;;;;;;13.74;85.89;99876.84;2030173;87;27830;-64
2022/09/11 04:22:42;;;;;;;11.38;8.70;;;;;;;13.75;85.92;99889.33;2030093;87;29059;-64
2022/09/11 04:25:43;;;;;;;13.03;8.90;;;;;;;13.77;85.99;99886.05;2030295;87;31987;-64
2022/09/11 04:28:45;;;;;;;13.55;8.90;;;;;;;13.77;85.99;99887.39;2030047;87;33328;-64
2022/09/11 04:31:47;;;;;;;9.63;7.53;;;;;;;13.78;86.05;99885.08;2029779;87;29696;-63
2022/09/11 04:34:49;;;;;;;12.10;8.38;;;;;;;13.80;86.11;99883.15;2030023;87;27751;-62
2022/09/11 04:37:50;;;;;;;10.60;9.05;;;;;;;13.82;86.29;99891.95;2030072;87;28110;-64
2022/09/11 04:40:52;;;;;;;11.53;8.88;;;;;;;13.86;86.40;99892.13;2004152;87;31454;-63
2022/09/11 04:43:55;;;;;;;8.43;7.58;;;;;;;13.79;86.33;99872.00;2018839;87;34212;-63
2022/09/11 04:46:57;;;;;;;10.13;8.03;;;;;;;13.79;86.33;99872.00;2002255;87;29608;-63
2022/09/11 04:49:58;;;;;;;16.70;8.05;;;;;;;13.93;86.40;99887.16;1988493;89;27611;-63
2022/09/11 04:52:59;;;;;;;7.85;7.15;;;;;;;13.95;86.40;99887.92;1990822;89;29340;-63
2022/09/11 04:56:08;;;;;;;8.18;7.37;;;;;;;13.97;86.41;99888.21;2004659;87;31450;-63
2022/09/11 04:59:18;;;;;;;10.40;6.92;;;;;;;13.99;86.37;99878.66;2026535;87;33640;-62
2022/09/11 05:02:20;;;;;;;7.65;6.85;;;;;;;14.01;86.48;99876.73;2027358;87;29692;-62
2022/09/11 05:05:21;;;;;;;8.28;7.40;;;;;;;14.05;86.54;99874.20;2027645;87;27713;-61
2022/09/11 05:08:25;;;;;;;8.98;7.40;;;;;;;14.08;86.44;99874.45;2029147;86;28639;-62
2022/09/11 05:11:28;;;;;;;8.93;7.17;;;;;;;14.11;86.53;99871.55;2063719;86;31046;-63
2022/09/11 05:14:34;;;;;;;7.70;6.87;;;;;;;14.16;86.57;99876.60;2041633;86;33818;-63
2022/09/11 05:17:36;;;;;;;7.08;6.37;;;;;;;14.19;86.62;99875.89;2027170;87;30673;-64
2022/09/11 05:20:39;;;;;;;7.90;6.65;;;;;;;14.23;86.59;99873.86;2027143;87;27777;-62
2022/09/11 05:23:42;;;;;;;11.25;7.10;;;;;;;14.27;86.68;99872.17;2032125;86;29716;-63
2022/09/11 05:26:43;;;;;;;11.57;7.30;;;;;;;14.31;86.60;99874.65;1988121;89;32064;-61
2022/09/11 05:29:44;;;;;;;15.88;7.45;;;;;;;14.35;86.73;99875.66;2004589;88;33391;-61
2022/09/11 05:32:46;;;;;;;7.72;6.92;;;;;;;14.41;86.73;99880.58;2004688;88;30039;-62
2022/09/11 05:35:52;;;;;;;12.70;7.42;;;;;;;14.35;86.74;99856.80;2004732;88;27706;-62
2022/09/11 05:38:54;;;;;;;17.55;7.25;;;;;;;14.54;86.77;99881.91;2004729;88;29808;-62
2022/09/11 05:41:55;;;;;;;13.00;7.15;;;;;;;14.60;86.81;99881.94;2004947;88;31068;-62
2022/09/11 05:44:56;;;;;;;9.78;6.40;;;;;;;14.68;86.50;99886.80;2021611;87;33050;-63
2022/09/11 05:47:58;;;;;;;11.85;6.58;;;;;;;14.69;86.77;99879.97;2024119;87;29984;-63
2022/09/11 05:51:05;;;;;;;8.68;7.47;;;;;;;14.79;86.71;99893.63;2023712;88;27724;-63
2022/09/11 05:54:07;;;;;;;10.50;6.90;;;;;;;14.86;86.68;99900.77;1997902;88;29543;-62
2022/09/11 05:57:08;;;;;;;14.13;7.20;;;;;;;14.90;86.56;99892.80;2009550;88;32110;-62
2022/09/11 06:00:13;;;;;;;7.70;6.22;;;;;;;14.95;86.68;99896.53;1990839;89;33054;-62
2022/09/11 06:03:20;;;;;;;14.40;7.70;;;;;;;15.00;86.60;99896.56;1991373;89;31123;-62
2022/09/11 06:06:23;;;;;;;10.15;7.78;;;;;;;15.07;86.68;99901.47;2022635;87;27806;-63
2022/09/11 06:09:24;;;;;;;11.20;8.25;;;;;;;15.05;86.52;99892.16;2057996;86;29495;-63
2022/09/11 06:12:26;;;;;;;12.20;8.20;;;;;;;15.08;86.72;99887.89;2058450;86;31100;-63
2022/09/11 06:15:28;;;;;;;11.43;8.60;;;;;;;15.24;86.75;99904.27;2058095;86;32992;-64
2022/09/11 06:18:32;;;;;;;11.00;8.70;;;;;;;15.29;86.65;99908.33;2069811;85;30766;-62
2022/09/11 06:21:33;;;;;;;16.02;9.70;;;;;;;15.33;86.53;99900.38;2070062;86;28327;-62
2022/09/11 06:24:34;;;;;;;10.90;8.38;;;;;;;15.42;86.37;99915.02;2033102;86;29862;-62
2022/09/11 06:27:36;;;;;;;16.60;9.75;;;;;;;15.42;86.37;99915.02;2027561;87;31402;-61
2022/09/11 06:30:37;;;;;;;14.38;10.55;;;;;;;15.30;86.34;99893.02;1991681;88;33876;-62
2022/09/11 06:33:40;;;;;;;13.50;9.48;;;;;;;15.47;86.16;99924.95;2015794;88;31024;-62
2022/09/11 06:36:42;;;;;;;18.02;10.68;;;;;;;15.49;86.11;99922.16;1990841;87;27651;-62
2022/09/11 06:39:44;;;;;;;15.20;10.60;;;;;;;15.51;86.09;99920.20;2022429;86;29912;-62
2022/09/11 06:42:45;;;;;;;14.68;11.03;;;;;;;15.53;86.03;99924.12;2015706;88;31917;-60
2022/09/11 06:45:50;;;;;;;14.75;11.18;;;;;;;15.54;86.02;99918.63;2039729;87;34348;-61
2022/09/11 06:48:52;;;;;;;14.73;11.43;;;;;;;15.59;86.16;99922.31;2003853;88;29598;-62
2022/09/11 06:51:53;;;;;;;16.37;12.28;;;;;;;15.62;86.07;99920.23;2000915;88;27764;-63
2022/09/11 06:54:56;;;;;;;17.60;13.20;;;;;;;15.65;86.06;99925.39;1998219;88;28845;-60
2022/09/11 06:57:57;;;;;;;16.05;12.90;;;;;;;15.48;85.83;99891.58;2032535;86;31610;-72
2022/09/11 07:01:03;;;;;;;14.60;10.13;;;;;;;15.73;86.32;99923.92;2040239;86;34198;-71
2022/09/11 07:04:05;;;;;;;18.73;14.20;;;;;;;15.86;86.52;99923.88;2067479;86;29689;-70
2022/09/11 07:07:06;;;;;;;21.07;16.05;;;;;;;15.99;86.60;99929.19;2067644;86;27676;-71
2022/09/11 07:10:09;;;;;;;18.75;13.98;;;;;;;16.09;86.40;99926.99;2067490;86;28729;-69
2022/09/11 07:13:10;;;;;;;18.75;14.47;;;;;;;16.19;86.43;99929.83;2056914;86;31052;-73
2022/09/11 07:16:12;;;;;;;17.10;12.78;;;;;;;16.29;86.11;99924.55;2030765;87;33761;-71
2022/09/11 07:19:14;;;;;;;14.65;13.13;;;;;;;16.39;86.01;99929.58;2033314;87;29642;-74
2022/09/11 07:22:15;;;;;;;16.57;12.95;;;;;;;16.50;85.64;99932.78;2030144;86;27599;-69
2022/09/11 07:25:16;;;;;;;21.52;15.70;;;;;;;16.58;85.30;99926.75;2030094;87;29163;-76
2022/09/11 07:28:18;;;;;;;15.53;13.72;;;;;;;16.71;85.26;99930.17;2020870;87;31377;-60
2022/09/11 07:31:25;;;;;;;17.27;13.10;;;;;;;16.83;85.27;99927.44;1999448;85;33374;-64
2022/09/11 07:34:26;;;;;;;15.72;12.82;;;;;;;16.98;85.28;99927.55;1990976;89;29708;-64
2022/09/11 07:37:27;;;;;;;13.18;11.75;;;;;;;17.08;84.68;99933.58;1991245;89;27721;-65
2022/09/11 07:40:30;;;;;;;16.60;11.55;;;;;;;17.13;84.08;99924.56;1991308;89;29068;-64
2022/09/11 07:43:33;;;;;;;12.78;11.48;;;;;;;17.24;84.08;99931.78;1991433;89;31446;-65
2022/09/11 07:46:35;;;;;;;12.03;10.63;;;;;;;17.40;83.97;99931.38;2002660;81;34186;-68
2022/09/11 07:49:38;;;;;;;17.32;12.80;;;;;;;17.54;83.56;99939.18;1974505;87;29641;-71
2022/09/11 07:52:41;;;;;;;13.93;10.60;;;;;;;17.66;83.32;99937.77;1974835;88;27279;-73
2022/09/11 07:55:42;;;;;;;13.75;11.20;;;;;;;17.78;82.97;99935.38;1987570;88;29839;-74
2022/09/11 07:58:44;;;;;;;13.30;10.28;;;;;;;17.90;83.06;99938.38;1983593;88;31063;-71
2022/09/11 08:01:45;;;;;;;13.00;10.48;;;;;;;18.05;82.61;99938.91;1984984;88;33348;-69
2022/09/11 08:04:47;;;;;;;14.87;10.28;;;;;;;18.13;82.34;99942.30;1978738;88;30415;-73
2022/09/11 08:07:48;;;;;;;12.05;10.85;;;;;;;18.22;82.01;99954.20;1989611;88;27749;-71
2022/09/11 08:10:50;;;;;;;11.22;9.53;;;;;;;18.27;81.73;99950.59;1982833;88;29070;-64
2022/09/11 08:13:53;;;;;;;9.75;8.75;;;;;;;18.25;81.12;99960.72;1984388;88;31265;-63
2022/09/11 08:16:55;;;;;;;10.78;9.28;;;;;;;18.28;81.12;99963.67;1983061;88;32986;-64
2022/09/11 08:19:57;;;;;;;9.80;8.70;;;;;;;18.28;80.63;99964.52;1979591;88;29671;-72
2022/09/11 08:22:58;;;;;;;12.18;8.90;;;;;;;18.26;80.18;99962.95;1983887;88;27794;-69
2022/09/11 08:26:14;;;;;;;10.40;8.78;;;;;;;18.27;80.43;99962.80;1984810;88;29931;-69
2022/09/11 08:29:17;;;;;;;11.38;7.97;;;;;;;18.28;79.74;99962.32;1976539;88;31497;-67
2022/09/11 08:32:19;;;;;;;9.68;7.72;;;;;;;18.34;80.09;99961.28;1983392;88;32982;-68
2022/09/11 08:35:20;;;;;;;8.50;7.67;;;;;;;18.35;79.51;99965.71;1954134;88;30456;-72
2022/09/11 08:38:21;;;;;;;13.35;8.08;;;;;;;18.37;79.58;99969.12;1963705;88;28253;-69
2022/09/11 08:41:50;;;;;;;11.30;7.85;;;;;;;18.40;79.23;99976.63;1963137;88;28856;-70
2022/09/11 08:44:51;;;;;;;;;;;;;;;18.37;79.26;99969.63;1959765;88;33237;-76
2022/09/11 08:47:55;;;;;;;8.95;7.25;;;;;;;18.31;78.85;99975.10;1970930;88;33014;-68
2022/09/11 08:50:57;;;;;;;8.68;7.78;;;;;;;18.31;79.00;99975.58;1957581;88;29675;-66
2022/09/11 08:54:01;;;;;;;9.20;8.40;;;;;;;18.32;78.99;99978.18;1959625;89;27630;-67
2022/09/11 08:57:41;;;;;;;10.70;7.92;;;;;;;18.34;78.82;99973.97;1960487;89;29915;-69
2022/09/11 09:01:15;;;;;;;8.90;7.92;;;;;;;18.43;79.20;99969.58;1960621;89;31060;-73
2022/09/11 09:05:05;;;;;;;9.48;8.53;;;;;;;18.49;78.85;99977.19;1964480;88;33762;-73
2022/09/11 09:08:46;;;;;;;13.95;8.83;;;;;;;18.62;78.86;99978.30;1951418;89;29763;-70
2022/09/11 09:12:28;;;;;;;13.53;9.80;;;;;;;18.67;78.52;99980.98;1953098;89;28275;-70
2022/09/11 09:15:58;;;;;;;10.80;9.40;;;;;;;18.66;77.82;99983.81;1962235;88;28745;-72
2022/09/11 09:19:24;;;;;;;12.37;10.08;;;;;;;18.60;77.82;99979.80;1961362;88;31924;-71
2022/09/11 09:22:53;;;;;;;11.12;8.93;;;;;;;18.57;77.76;99986.00;1946026;90;32980;-73
2022/09/11 09:25:56;;;;;;;11.95;10.08;;;;;;;18.70;78.26;99987.14;1976750;89;30458;-77
2022/09/11 09:29:00;;;;;;;11.30;9.67;;;;;;;18.91;78.39;99987.91;1965898;88;27740;-71
2022/09/11 09:32:10;;;;;;;11.18;10.08;;;;;;;19.03;77.76;99990.57;1930045;91;28676;-69
2022/09/11 09:35:22;;;;;;;11.15;9.65;;;;;;;19.16;77.78;99987.58;1969332;88;31745;-69
2022/09/11 09:38:28;;;;;;;9.88;8.48;;;;;;;19.34;77.69;99986.41;1969533;88;33529;-66
2022/09/11 09:42:04;;;;;;;12.25;10.58;;;;;;;19.41;76.74;99977.55;1966606;88;29669;-72
2022/09/11 09:45:31;;;;;;;10.23;9.20;;;;;;;19.40;76.56;99978.55;1931430;90;32203;-70
2022/09/11 09:48:37;;;;;;;9.90;8.90;;;;;;;19.45;76.52;99975.41;1974769;88;29907;-71
2022/09/11 09:51:38;;;;;;;11.68;9.23;;;;;;;19.49;76.39;99979.56;1970331;88;31947;-76
2022/09/11 09:54:40;;;;;;;10.45;8.53;;;;;;;19.54;76.30;99979.13;1935718;89;33189;-71
2022/09/11 09:57:42;;;;;;;8.85;7.95;;;;;;;19.68;76.49;99980.56;1975216;88;30385;-68
2022/09/11 10:00:44;;;;;;;9.73;7.85;;;;;;;19.81;75.87;99980.25;1998919;87;27810;-68
2022/09/11 10:04:13;;;;;;;8.45;7.10;;;;;;;19.84;75.16;99977.25;2003890;87;28820;-68
2022/09/11 10:07:19;;;;;;;7.75;6.53;;;;;;;20.00;75.94;99979.42;2009927;87;31153;-67
2022/09/11 10:10:28;;;;;;;7.12;6.40;;;;;;;20.27;75.67;99981.34;2009400;87;32968;-65
2022/09/11 10:13:43;;;;;;;6.80;6.05;;;;;;;20.40;74.97;99976.11;2006707;87;29751;-63
2022/09/11 10:16:49;;;;;;;8.85;6.33;;;;;;;20.45;74.44;99978.73;1981360;87;27582;-71
2022/09/11 10:19:54;;;;;;;7.35;6.55;;;;;;;20.47;73.53;99984.02;2009951;87;28666;-70
2022/09/11 10:22:55;;;;;;;;;;;;;;;20.44;73.74;99984.30;2011298;87;31247;-73
2022/09/11 10:25:56;;;;;;;6.67;6.08;;;;;;;20.51;73.27;99982.72;2005814;87;32981;-70
2022/09/11 10:29:28;;;;;;;8.55;7.20;;;;;;;20.65;73.35;99983.59;2004972;87;29644;-67
2022/09/11 10:32:31;;;;;;;8.65;7.75;;;;;;;20.77;72.99;99986.14;2004960;87;28375;-71
2022/09/11 10:35:34;;;;;;;9.48;8.48;;;;;;;20.97;72.61;99986.92;2003547;87;28667;-69
2022/09/11 10:38:48;;;;;;;8.97;8.03;;;;;;;21.13;72.37;99984.88;2005517;87;31507;-69
2022/09/11 10:41:54;;;;;;;8.05;7.25;;;;;;;21.26;70.94;99984.52;2005708;87;33781;-66
2022/09/11 10:45:03;;;;;;;8.38;7.37;;;;;;;21.33;71.35;99987.48;2007086;87;29628;-71
2022/09/11 10:48:18;;;;;;;7.58;6.83;;;;;;;21.50;71.30;99987.16;1984041;88;28398;-72
2022/09/11 10:51:22;;;;;;;7.60;6.70;;;;;;;21.71;70.31;99989.60;1953708;89;28706;-73
2022/09/11 10:54:47;;;;;;;7.85;7.05;;;;;;;21.74;69.71;99984.33;1960011;89;31063;-67
2022/09/11 10:57:58;;;;;;;7.08;6.37;;;;;;;21.62;69.28;99989.16;1956947;89;33359;-72
2022/09/11 11:01:00;;;;;;;6.20;5.67;;;;;;;21.36;68.49;99996.20;1956456;89;29647;-67
2022/09/11 11:04:02;;;;;;;6.17;5.58;;;;;;;21.10;68.71;99995.59;1959582;90;28390;-74
2022/09/11 11:07:21;;;;;;;6.90;5.20;;;;;;;20.98;69.00;99995.45;1958172;89;29065;-71
2022/09/11 11:10:54;;;;;;;7.90;5.45;;;;;;;20.92;69.40;99996.05;1957327;90;31423;-69
2022/09/11 11:14:20;;;;;;;5.45;4.83;;;;;;;20.88;69.20;100006.87;1960304;90;33734;-69
2022/09/11 11:17:51;;;;;;;5.00;4.50;;;;;;;20.85;69.20;100005.33;1959883;89;29736;-72
2022/09/11 11:21:05;;;;;;;4.78;4.35;;;;;;;20.70;68.74;100006.80;1959027;89;27670;-70
2022/09/11 11:24:16;;;;;;;4.30;3.90;;;;;;;20.52;68.77;100009.45;1946515;90;28709;-75
2022/09/11 11:27:38;;;;;;;5.30;3.90;;;;;;;20.55;69.23;100015.93;1960084;90;30749;-69
2022/09/11 11:31:03;;;;;;;6.42;3.98;;;;;;;20.73;69.38;100003.78;1960397;90;33064;-69
2022/09/11 11:34:36;;;;;;;3.72;3.42;;;;;;;20.95;69.34;100006.64;1955494;90;29696;-69
2022/09/11 11:37:41;;;;;;;6.72;4.08;;;;;;;21.05;69.04;100008.80;1957083;90;27860;-75
2022/09/11 11:40:53;;;;;;;4.90;4.50;;;;;;;21.13;68.65;100008.55;1956012;90;29508;-66
2022/09/11 11:43:58;;;;;;;8.73;4.22;;;;;;;21.14;68.37;100010.27;1957043;90;31087;-70
2022/09/11 11:47:04;;;;;;;4.90;4.22;;;;;;;21.10;67.73;100020.59;1957177;90;32968;-67
2022/09/11 11:50:19;;;;;;;6.20;4.83;;;;;;;20.97;67.17;100016.01;1919807;90;29636;-70
2022/09/11 11:53:35;;;;;;;7.03;4.40;;;;;;;20.84;67.46;100017.22;1990917;88;27775;-72
2022/09/11 11:56:53;;;;;;;6.33;4.47;;;;;;;20.71;67.38;100012.59;1998680;88;28694;-67
2022/09/11 12:00:10;;;;;;;8.13;4.75;;;;;;;20.57;67.28;100018.00;1998150;87;32000;-67
2022/09/11 12:03:22;;;;;;;7.17;5.37;;;;;;;20.41;67.38;100022.72;1987872;88;33601;-68
2022/09/11 12:06:25;;;;;;;7.15;5.05;;;;;;;20.25;67.99;100029.63;1997037;88;30488;-69
2022/09/11 12:09:30;;;;;;;13.20;9.23;;;;;;;20.02;67.55;100033.17;1994715;87;27712;-67
2022/09/11 12:12:35;;;;;;;10.40;7.00;;;;;;;19.74;67.84;100037.93;1991465;89;28731;-67
2022/09/11 12:15:37;;;;;;;10.85;6.97;;;;;;;19.52;68.64;100040.90;1991295;88;31098;-67
2022/09/11 12:18:40;;;;;;;6.97;6.28;;;;;;;19.33;68.89;100040.37;1974236;89;32984;-67
2022/09/11 12:22:11;;;;;;;6.87;6.00;;;;;;;19.26;69.33;100045.51;1976375;89;29297;-67
2022/09/11 12:25:27;;;;;;;7.20;6.50;;;;;;;19.19;69.72;100050.64;1996413;89;27740;-66
2022/09/11 12:28:28;;;;;;;9.63;6.53;;;;;;;19.17;70.17;100058.55;1918104;90;28757;-65
2022/09/11 12:31:51;;;;;;;8.93;6.92;;;;;;;19.27;70.66;100048.07;1914214;91;31396;-65
2022/09/11 12:35:00;;;;;;;8.38;7.45;;;;;;;19.42;70.82;100043.11;1914055;91;33019;-65
2022/09/11 12:38:13;;;;;;;7.87;6.60;;;;;;;19.65;70.52;100041.48;1931538;91;29629;-67
2022/09/11 12:41:28;;;;;;;6.75;6.00;;;;;;;19.78;70.33;100033.54;1928061;91;27958;-67
2022/09/11 12:44:48;;;;;;;6.97;5.78;;;;;;;19.94;70.60;100031.14;1932956;91;29354;-67
2022/09/11 12:47:50;;;;;;;5.92;5.33;;;;;;;20.08;69.90;100038.01;1923034;91;31019;-68
2022/09/11 12:50:55;;;;;;;9.13;5.17;;;;;;;20.17;69.82;100033.08;1946820;90;32988;-68
2022/09/11 12:54:17;;;;;;;5.58;4.55;;;;;;;20.29;69.84;100037.83;1939288;91;29664;-68
2022/09/11 12:57:29;;;;;;;6.65;4.97;;;;;;;20.35;69.53;100032.33;1914966;91;28481;-67
2022/09/11 13:00:38;;;;;;;5.53;4.65;;;;;;;20.49;69.76;100032.35;1896032;92;28664;-67
2022/09/11 13:04:14;;;;;;;9.73;4.78;;;;;;;20.63;69.63;100019.63;1924632;91;30489;-67
2022/09/11 13:07:33;;;;;;;6.25;4.90;;;;;;;20.76;69.40;100022.57;1995568;89;32956;-68
2022/09/11 13:10:37;;;;;;;5.55;4.92;;;;;;;20.94;69.48;100018.02;1993515;89;29641;-69
2022/09/11 13:13:43;;;;;;;6.03;4.92;;;;;;;21.13;69.30;100022.17;1995009;89;27712;-67
2022/09/11 13:16:46;;;;;;;4.70;4.20;;;;;;;21.29;69.00;100021.00;1997228;89;29907;-67
2022/09/11 13:19:50;;;;;;;4.75;4.17;;;;;;;21.42;68.63;100032.03;1996630;89;31049;-67
2022/09/11 13:22:51;;;;;;;4.28;3.87;;;;;;;21.47;67.67;100027.83;1972780;89;33656;-69
2022/09/11 13:25:57;;;;;;;4.70;4.10;;;;;;;21.42;67.25;100023.37;1970775;89;29688;-67
2022/09/11 13:29:00;;;;;;;4.67;4.28;;;;;;;21.51;67.63;100020.23;1995619;89;27605;-68
2022/09/11 13:32:14;;;;;;;4.30;3.90;;;;;;;21.56;66.89;100015.14;1996716;89;28661;-68
2022/09/11 13:35:27;;;;;;;4.22;3.85;;;;;;;21.59;66.91;100018.09;1978609;89;31099;-68
2022/09/11 13:38:33;;;;;;;5.25;4.12;;;;;;;21.59;67.04;100012.11;1994627;89;32977;-67
2022/09/11 13:41:38;;;;;;;6.67;3.90;;;;;;;21.50;66.38;100016.63;1994838;89;29631;-68
2022/09/11 13:44:45;;;;;;;6.12;3.47;;;;;;;21.35;66.00;100025.82;1970028;89;27872;-66
2022/09/11 13:47:47;;;;;;;7.47;3.67;;;;;;;21.19;65.37;100025.15;1995637;89;28668;-68
2022/09/11 13:50:52;;;;;;;4.58;4.08;;;;;;;21.10;65.57;100028.77;1995320;88;31951;-67
2022/09/11 13:54:12;;;;;;;5.60;3.70;;;;;;;21.04;65.20;100022.06;1996937;89;34262;-68
2022/09/11 13:57:19;;;;;;;4.17;3.77;;;;;;;20.99;65.12;100025.77;1996544;89;29653;-68
2022/09/11 14:00:49;;;;;;;4.15;3.70;;;;;;;21.00;65.21;100019.31;1996260;89;27600;-67
2022/09/11 14:03:50;;;;;;;6.28;4.03;;;;;;;20.98;64.78;100023.17;1995307;89;29494;-68
2022/09/11 14:06:56;;;;;;;3.95;3.65;;;;;;;20.84;64.50;100021.30;1994944;89;31907;-67
2022/09/11 14:10:03;;;;;;;5.17;3.75;;;;;;;20.74;64.38;100027.27;1994417;89;33166;-67
2022/09/11 14:13:36;;;;;;;5.08;3.33;;;;;;;20.47;63.81;100025.70;1980918;89;30420;-67
2022/09/11 14:16:47;;;;;;;4.47;3.92;;;;;;;20.21;63.53;100032.76;1985209;89;27732;-67
2022/09/11 14:19:50;;;;;;;5.10;3.77;;;;;;;19.96;64.69;100038.66;1984499;89;28892;-66
2022/09/11 14:22:53;;;;;;;4.58;3.67;;;;;;;19.84;64.84;100035.22;1985802;89;31480;-67
2022/09/11 14:26:14;;;;;;;3.80;3.35;;;;;;;19.71;64.95;100031.41;1985533;89;32970;-66
2022/09/11 14:29:27;;;;;;;6.70;3.55;;;;;;;19.61;65.18;100035.96;1986489;89;29654;-66
2022/09/11 14:32:33;;;;;;;4.75;3.52;;;;;;;19.50;64.81;100040.17;1985162;89;27799;-65
2022/09/11 14:35:35;;;;;;;4.60;3.72;;;;;;;19.36;64.91;100041.46;1985907;89;29670;-66
2022/09/11 14:38:37;;;;;;;5.33;3.70;;;;;;;19.22;65.02;100034.04;1986604;89;31035;-66